createdAt,value
2022-09-14T00:01:50.844Z,16.35
2022-09-14T00:04:18.776Z,16.37
2022-09-14T00:06:46.312Z,16.39
2022-09-14T00:09:22.289Z,16.50
2022-09-14T00:11:49.020Z,16.51
2022-09-14T00:14:15.828Z,16.37
2022-09-14T00:16:42.986Z,16.45
2022-09-14T00:19:19.759Z,16.31
2022-09-14T00:21:46.295Z,16.48
2022-09-14T00:24:12.661Z,16.53
2022-09-14T00:26:39.050Z,16.53
2022-09-14T00:29:05.529Z,16.58
2022-09-14T00:31:34.598Z,16.70
2022-09-14T00:34:01.379Z,16.63
2022-09-14T00:36:29.467Z,16.58
2022-09-14T00:38:57.031Z,16.59
2022-09-14T00:41:29.738Z,16.56
2022-09-14T00:44:19.151Z,16.55
2022-09-14T00:46:47.917Z,16.57
2022-09-14T00:49:18.286Z,16.53
2022-09-14T00:52:08.823Z,16.49
2022-09-14T00:54:47.183Z,16.53
2022-09-14T00:57:14.223Z,16.58
2022-09-14T00:59:42.002Z,16.63
2022-09-14T01:02:09.641Z,16.57
2022-09-14T01:04:36.629Z,16.54
2022-09-14T01:07:27.446Z,16.53
2022-09-14T01:10:27.920Z,16.52
2022-09-14T01:12:54.108Z,16.46
2022-09-14T01:15:23.727Z,16.64
2022-09-14T01:17:53.437Z,16.33
2022-09-14T01:20:58.665Z,16.42
2022-09-14T01:23:36.434Z,16.47
2022-09-14T01:26:54.171Z,16.51
2022-09-14T01:29:23.309Z,16.50
2022-09-14T01:31:56.815Z,16.43
2022-09-14T01:34:34.195Z,16.37
2022-09-14T01:37:18.468Z,16.33
2022-09-14T01:39:52.527Z,16.40
2022-09-14T01:42:21.028Z,16.44
2022-09-14T01:44:49.588Z,16.42
2022-09-14T01:47:23.303Z,16.40
2022-09-14T01:49:53.861Z,16.39
2022-09-14T01:52:27.296Z,16.37
2022-09-14T01:55:13.679Z,16.27
2022-09-14T01:57:44.030Z,16.40
2022-09-14T02:00:16.211Z,16.44
2022-09-14T02:02:55.568Z,16.38
2022-09-14T02:05:29.511Z,16.42
2022-09-14T02:07:56.160Z,16.35
2022-09-14T02:10:24.348Z,16.40
2022-09-14T02:12:51.950Z,16.35
2022-09-14T02:15:18.516Z,16.42
2022-09-14T02:17:45.351Z,16.39
2022-09-14T02:20:30.820Z,16.26
2022-09-14T02:22:57.177Z,16.34
2022-09-14T02:25:23.526Z,16.30
2022-09-14T02:27:49.926Z,16.33
2022-09-14T02:30:17.275Z,16.28
2022-09-14T02:32:59.738Z,16.29
2022-09-14T02:35:27.920Z,16.34
2022-09-14T02:38:15.966Z,16.31
2022-09-14T02:40:45.231Z,16.26
2022-09-14T02:43:35.365Z,16.24
2022-09-14T02:46:06.601Z,16.19
2022-09-14T02:48:38.836Z,16.24
2022-09-14T02:51:12.248Z,16.26
2022-09-14T02:53:44.528Z,16.20
2022-09-14T02:56:11.698Z,16.19
2022-09-14T02:58:40.368Z,16.13
2022-09-14T03:01:07.954Z,16.19
2022-09-14T03:03:35.735Z,16.16
2022-09-14T03:06:02.605Z,16.14
2022-09-14T03:08:29.004Z,16.19
2022-09-14T03:10:55.368Z,16.12
2022-09-14T03:13:21.764Z,16.18
2022-09-14T03:15:48.492Z,16.17
2022-09-14T03:18:15.162Z,16.09
2022-09-14T03:20:41.888Z,16.25
2022-09-14T03:23:09.093Z,16.24
2022-09-14T03:25:40.571Z,16.13
2022-09-14T03:28:08.194Z,16.28
2022-09-14T03:30:34.712Z,16.27
2022-09-14T03:33:01.465Z,16.18
2022-09-14T03:35:31.187Z,16.10
2022-09-14T03:37:57.965Z,15.98
2022-09-14T03:40:24.824Z,16.17
2022-09-14T03:42:51.996Z,16.20
2022-09-14T03:45:20.084Z,16.18
2022-09-14T03:47:49.373Z,16.32
2022-09-14T03:50:16.678Z,16.26
2022-09-14T03:52:43.050Z,16.24
2022-09-14T03:55:10.144Z,16.26
2022-09-14T03:57:37.423Z,16.40
2022-09-14T04:00:06.022Z,16.25
2022-09-14T04:02:32.428Z,16.17
2022-09-14T04:04:58.906Z,16.20
2022-09-14T04:07:25.352Z,16.12
2022-09-14T04:09:51.705Z,16.16
2022-09-14T04:12:18.069Z,16.06
2022-09-14T04:14:44.429Z,16.01
2022-09-14T04:17:10.784Z,15.91
2022-09-14T04:19:38.484Z,15.89
2022-09-14T04:22:05.300Z,15.99
2022-09-14T04:24:31.669Z,15.91
2022-09-14T04:26:58.148Z,15.97
2022-09-14T04:29:24.513Z,15.94
2022-09-14T04:31:50.925Z,15.91
2022-09-14T04:34:17.402Z,15.90
2022-09-14T04:36:43.761Z,16.01
2022-09-14T04:39:11.202Z,15.92
2022-09-14T04:41:37.669Z,15.83
2022-09-14T04:44:04.023Z,15.87
2022-09-14T04:46:32.306Z,15.98
2022-09-14T04:48:58.843Z,15.96
2022-09-14T04:51:27.927Z,15.78
2022-09-14T04:53:56.397Z,15.87
2022-09-14T04:56:23.976Z,15.87
2022-09-14T04:58:52.687Z,15.83
2022-09-14T05:01:21.756Z,15.88
2022-09-14T05:03:48.761Z,15.92
2022-09-14T05:06:20.160Z,15.97
2022-09-14T05:08:47.277Z,15.91
2022-09-14T05:11:16.541Z,15.90
2022-09-14T05:13:47.539Z,15.91
2022-09-14T05:16:24.760Z,15.78
2022-09-14T05:18:53.137Z,15.86
2022-09-14T05:21:20.828Z,15.84
2022-09-14T05:23:47.541Z,15.87
2022-09-14T05:26:14.592Z,15.86
2022-09-14T05:28:41.068Z,15.84
2022-09-14T05:31:10.096Z,15.94
2022-09-14T05:33:36.797Z,15.87
2022-09-14T05:36:05.833Z,15.94
2022-09-14T05:38:34.143Z,15.93
2022-09-14T05:41:00.508Z,15.87
2022-09-14T05:43:28.546Z,15.88
2022-09-14T05:45:54.976Z,15.85
2022-09-14T05:48:21.610Z,15.81
2022-09-14T05:50:48.399Z,15.77
2022-09-14T05:53:14.762Z,16.00
2022-09-14T05:55:41.112Z,15.91
2022-09-14T05:58:08.518Z,15.93
2022-09-14T06:00:35.060Z,16.01
2022-09-14T06:03:01.513Z,15.89
2022-09-14T06:05:28.216Z,15.85
2022-09-14T06:07:54.693Z,16.01
2022-09-14T06:10:21.564Z,16.12
2022-09-14T06:12:51.183Z,15.96
2022-09-14T06:15:19.852Z,16.02
2022-09-14T06:17:46.242Z,16.08
2022-09-14T06:20:12.583Z,16.15
2022-09-14T06:22:38.972Z,16.14
2022-09-14T06:25:05.724Z,16.17
2022-09-14T06:27:32.136Z,16.22
2022-09-14T06:29:58.568Z,16.39
2022-09-14T06:32:24.945Z,16.27
2022-09-14T06:34:51.293Z,16.49
2022-09-14T06:37:17.641Z,16.46
2022-09-14T06:39:44.074Z,16.51
2022-09-14T06:42:10.464Z,16.51
2022-09-14T06:44:36.812Z,16.61
2022-09-14T06:47:03.296Z,16.53
2022-09-14T06:49:29.768Z,16.65
2022-09-14T06:51:57.397Z,16.67
2022-09-14T06:54:25.192Z,16.44
2022-09-14T06:56:51.668Z,16.43
2022-09-14T06:59:18.391Z,16.56
2022-09-14T07:01:46.117Z,16.56
2022-09-14T07:04:14.285Z,16.46
2022-09-14T07:06:43.751Z,16.56
2022-09-14T07:09:10.339Z,16.61
2022-09-14T07:11:36.975Z,16.56
2022-09-14T07:14:03.434Z,16.58
2022-09-14T07:16:31.437Z,16.63
2022-09-14T07:18:59.903Z,16.65
2022-09-14T07:21:26.457Z,16.62
2022-09-14T07:23:53.012Z,16.69
2022-09-14T07:26:22.213Z,16.83
2022-09-14T07:28:55.450Z,16.82
2022-09-14T07:31:21.813Z,16.94
2022-09-14T07:33:48.949Z,16.92
2022-09-14T07:36:15.464Z,16.99
2022-09-14T07:38:52.071Z,17.00
2022-09-14T07:41:24.087Z,17.15
2022-09-14T07:43:51.743Z,17.16
2022-09-14T07:46:19.118Z,17.13
2022-09-14T07:48:45.742Z,17.14
2022-09-14T07:51:12.408Z,17.24
2022-09-14T07:53:40.820Z,17.06
2022-09-14T07:56:07.532Z,17.21
2022-09-14T07:58:34.132Z,17.33
2022-09-14T08:01:11.973Z,17.27
2022-09-14T08:03:43.434Z,17.45
2022-09-14T08:06:15.806Z,17.40
2022-09-14T08:08:44.405Z,17.43
2022-09-14T08:11:14.176Z,17.41
2022-09-14T08:13:43.728Z,17.38
2022-09-14T08:16:10.871Z,17.47
2022-09-14T08:18:38.199Z,17.43
2022-09-14T08:21:06.631Z,17.26
2022-09-14T08:23:33.584Z,17.33
2022-09-14T08:26:08.154Z,17.37
2022-09-14T08:28:36.296Z,17.45
2022-09-14T08:31:07.817Z,17.51
2022-09-14T08:33:36.244Z,17.58
2022-09-14T08:36:03.132Z,17.57
2022-09-14T08:38:29.708Z,17.71
2022-09-14T08:40:56.760Z,17.67
2022-09-14T08:43:24.590Z,17.57
2022-09-14T08:45:55.153Z,17.56
2022-09-14T08:48:33.045Z,17.56
2022-09-14T08:50:59.508Z,17.75
2022-09-14T08:53:25.972Z,17.63
2022-09-14T08:56:06.425Z,17.73
2022-09-14T08:59:09.611Z,17.58
2022-09-14T09:01:42.052Z,17.77
2022-09-14T09:04:20.915Z,17.85
2022-09-14T09:07:16.992Z,17.72
2022-09-14T09:09:53.379Z,17.67
2022-09-14T09:12:50.941Z,17.68
2022-09-14T09:15:43.803Z,17.81
2022-09-14T09:18:40.999Z,17.77
2022-09-14T09:21:12.419Z,18.01
2022-09-14T09:23:39.354Z,18.01
2022-09-14T09:26:30.985Z,18.19
2022-09-14T09:29:00.260Z,18.26
2022-09-14T09:31:35.741Z,18.23
2022-09-14T09:34:02.561Z,18.12
2022-09-14T09:36:34.242Z,18.18
2022-09-14T09:39:04.990Z,18.18
2022-09-14T09:41:44.456Z,18.09
2022-09-14T09:44:11.023Z,18.25
2022-09-14T09:46:48.340Z,18.23
2022-09-14T09:49:28.097Z,18.16
2022-09-14T09:51:55.050Z,18.23
2022-09-14T09:54:24.660Z,18.33
2022-09-14T09:56:55.643Z,18.11
2022-09-14T09:59:28.388Z,18.46
2022-09-14T10:01:56.754Z,18.52
2022-09-14T10:04:30.022Z,18.48
2022-09-14T10:06:57.752Z,18.30
2022-09-14T10:09:27.434Z,18.52
2022-09-14T10:11:59.542Z,18.54
2022-09-14T10:14:28.079Z,18.47
2022-09-14T10:17:15.716Z,18.43
2022-09-14T10:19:47.321Z,18.57
2022-09-14T10:22:34.398Z,18.63
2022-09-14T10:25:24.755Z,18.54
2022-09-14T10:27:54.453Z,18.77
2022-09-14T10:30:23.565Z,18.84
2022-09-14T10:32:57.064Z,18.88
2022-09-14T10:35:28.969Z,18.96
2022-09-14T10:37:58.865Z,19.08
2022-09-14T10:40:36.135Z,18.99
2022-09-14T10:43:12.690Z,18.77
2022-09-14T10:45:41.777Z,18.71
2022-09-14T10:48:52.644Z,18.73
2022-09-14T10:51:34.906Z,18.91
2022-09-14T10:54:10.886Z,19.13
2022-09-14T10:57:04.095Z,18.77
2022-09-14T10:59:59.348Z,18.90
2022-09-14T11:02:42.894Z,18.81
2022-09-14T11:05:21.228Z,18.87
2022-09-14T11:07:56.623Z,18.96
2022-09-14T11:10:35.153Z,18.93
2022-09-14T11:13:10.696Z,19.08
2022-09-14T11:15:58.312Z,19.06
2022-09-14T11:18:35.746Z,19.03
2022-09-14T11:21:23.898Z,19.11
2022-09-14T11:24:09.060Z,19.18
2022-09-14T11:27:03.122Z,19.22
2022-09-14T11:29:33.285Z,19.17
2022-09-14T11:32:20.522Z,19.16
2022-09-14T11:34:54.775Z,19.12
2022-09-14T11:37:26.316Z,19.17
2022-09-14T11:40:03.893Z,19.01
2022-09-14T11:42:40.578Z,19.04
2022-09-14T11:45:15.028Z,19.08
2022-09-14T11:47:48.608Z,19.01
2022-09-14T11:50:24.079Z,19.01
2022-09-14T11:53:00.560Z,19.25
2022-09-14T11:55:27.072Z,19.37
2022-09-14T11:57:53.816Z,19.34
2022-09-14T12:00:20.730Z,19.50
2022-09-14T12:03:18.174Z,19.71
2022-09-14T12:05:46.245Z,19.98
2022-09-14T12:08:30.831Z,20.20
2022-09-14T12:11:09.286Z,20.17
2022-09-14T12:13:39.271Z,20.19
2022-09-14T12:16:09.598Z,20.29
2022-09-14T12:18:37.578Z,20.26
2022-09-14T12:21:40.455Z,20.08
2022-09-14T12:24:14.650Z,20.36
2022-09-14T12:26:41.020Z,20.47
2022-09-14T12:29:32.697Z,20.38
2022-09-14T12:32:05.079Z,20.51
2022-09-14T12:34:33.248Z,20.74
2022-09-14T12:37:11.945Z,20.79
2022-09-14T12:39:38.675Z,20.90
2022-09-14T12:42:25.753Z,20.98
2022-09-14T12:44:52.624Z,20.95
2022-09-14T12:47:25.075Z,20.67
2022-09-14T12:49:58.526Z,20.84
2022-09-14T12:52:59.361Z,20.79
2022-09-14T12:55:38.404Z,20.77
2022-09-14T12:58:04.638Z,21.10
2022-09-14T13:00:43.941Z,21.21
2022-09-14T13:03:29.616Z,21.24
2022-09-14T13:05:56.294Z,21.22
2022-09-14T13:08:24.081Z,21.50
2022-09-14T13:10:51.628Z,21.44
2022-09-14T13:13:21.910Z,21.57
2022-09-14T13:16:01.117Z,21.75
2022-09-14T13:18:35.480Z,21.65
2022-09-14T13:21:16.415Z,22.10
2022-09-14T13:23:42.783Z,22.11
2022-09-14T13:26:25.245Z,21.87
2022-09-14T13:28:53.518Z,22.27
2022-09-14T13:31:23.043Z,22.64
2022-09-14T13:33:52.156Z,23.08
2022-09-14T13:36:30.288Z,22.80
2022-09-14T13:39:01.517Z,22.76
2022-09-14T13:41:30.658Z,22.91
2022-09-14T13:43:57.536Z,23.27
2022-09-14T13:46:25.511Z,23.78
2022-09-14T13:48:53.454Z,24.91
2022-09-14T13:51:28.031Z,24.75
2022-09-14T13:53:58.943Z,25.70
2022-09-14T13:56:34.508Z,25.84
2022-09-14T13:59:07.096Z,25.42
2022-09-14T14:01:37.428Z,25.38
2022-09-14T14:04:04.213Z,25.21
2022-09-14T14:06:32.600Z,25.92
2022-09-14T14:09:10.473Z,26.12
2022-09-14T14:11:39.073Z,26.57
2022-09-14T14:14:30.228Z,26.93
2022-09-14T14:17:12.815Z,27.24
2022-09-14T14:19:43.599Z,28.10
2022-09-14T14:22:16.154Z,29.19
2022-09-14T14:25:11.904Z,29.68
2022-09-14T14:27:31.868Z,29.03
2022-09-14T14:29:59.503Z,29.98
2022-09-14T14:32:26.088Z,29.03
2022-09-14T14:34:55.396Z,28.04
2022-09-14T14:37:22.052Z,27.90
2022-09-14T14:39:49.744Z,28.69
2022-09-14T14:42:16.811Z,29.47
2022-09-14T14:44:44.070Z,29.55
2022-09-14T14:47:12.699Z,29.80
2022-09-14T14:49:39.047Z,29.36
2022-09-14T14:52:06.693Z,29.28
2022-09-14T14:54:33.056Z,29.02
2022-09-14T14:56:59.415Z,29.33
2022-09-14T14:59:27.631Z,29.56
2022-09-14T15:01:54.325Z,30.00
2022-09-14T15:04:21.040Z,30.26
2022-09-14T15:06:47.949Z,29.92
2022-09-14T15:09:18.144Z,30.18
2022-09-14T15:11:45.436Z,30.43
2022-09-14T15:14:13.882Z,29.93
2022-09-14T15:16:40.418Z,29.42
2022-09-14T15:19:07.229Z,29.30
2022-09-14T15:21:33.645Z,29.20
2022-09-14T15:24:00.128Z,28.69
2022-09-14T15:26:26.534Z,28.70
2022-09-14T15:28:52.960Z,28.09
2022-09-14T15:31:20.074Z,27.75
2022-09-14T15:33:46.543Z,27.65
2022-09-14T15:36:15.591Z,27.64
2022-09-14T15:38:42.155Z,27.25
2022-09-14T15:41:26.414Z,26.50
2022-09-14T15:43:52.785Z,25.89
2022-09-14T15:46:19.133Z,25.72
2022-09-14T15:48:45.489Z,25.85
2022-09-14T15:51:11.941Z,25.47
2022-09-14T15:53:39.714Z,25.67
2022-09-14T15:56:10.546Z,25.38
2022-09-14T15:58:37.333Z,25.08
2022-09-14T16:01:22.152Z,25.49
2022-09-14T16:03:48.573Z,25.80
2022-09-14T16:06:15.008Z,25.92
2022-09-14T16:08:41.865Z,25.27
2022-09-14T16:11:09.706Z,24.90
2022-09-14T16:13:36.352Z,24.01
2022-09-14T16:16:08.113Z,23.55
2022-09-14T16:18:34.773Z,23.19
2022-09-14T16:21:09.228Z,22.94
2022-09-14T16:23:38.936Z,22.77
2022-09-14T16:26:10.344Z,22.21
2022-09-14T16:28:37.706Z,22.09
2022-09-14T16:31:06.047Z,22.11
2022-09-14T16:33:37.285Z,21.91
2022-09-14T16:36:09.642Z,22.02
2022-09-14T16:38:36.631Z,21.85
2022-09-14T16:41:04.039Z,21.93
2022-09-14T16:43:31.398Z,21.93
2022-09-14T16:46:15.157Z,21.70
2022-09-14T16:48:43.650Z,21.57
2022-09-14T16:51:10.886Z,21.59
2022-09-14T16:53:39.836Z,21.66
2022-09-14T16:56:08.950Z,21.36
2022-09-14T16:58:36.100Z,21.39
2022-09-14T17:01:07.248Z,21.16
2022-09-14T17:03:35.397Z,21.11
2022-09-14T17:06:07.745Z,21.04
2022-09-14T17:08:34.940Z,21.08
2022-09-14T17:11:03.766Z,20.96
2022-09-14T17:13:31.040Z,20.93
2022-09-14T17:16:02.367Z,20.84
2022-09-14T17:18:29.076Z,20.76
2022-09-14T17:20:57.048Z,20.70
2022-09-14T17:23:23.461Z,20.64
2022-09-14T17:25:50.003Z,20.41
2022-09-14T17:28:16.402Z,20.35
2022-09-14T17:30:43.213Z,20.29
2022-09-14T17:33:10.147Z,20.35
2022-09-14T17:35:36.538Z,20.31
2022-09-14T17:38:02.980Z,20.14
2022-09-14T17:40:30.477Z,20.20
2022-09-14T17:42:57.391Z,20.06
2022-09-14T17:45:23.745Z,19.93
2022-09-14T17:47:50.108Z,19.91
2022-09-14T17:50:16.711Z,19.96
2022-09-14T17:52:43.047Z,19.85
2022-09-14T17:55:09.540Z,19.88
2022-09-14T17:57:35.964Z,19.77
2022-09-14T18:00:03.349Z,19.79
2022-09-14T18:02:29.812Z,19.72
2022-09-14T18:04:56.186Z,19.72
2022-09-14T18:07:22.580Z,19.51
2022-09-14T18:09:49.102Z,19.61
2022-09-14T18:12:17.685Z,19.57
2022-09-14T18:14:44.027Z,19.59
2022-09-14T18:17:10.464Z,19.49
2022-09-14T18:19:36.817Z,19.61
2022-09-14T18:22:03.222Z,19.48
2022-09-14T18:24:29.658Z,19.50
2022-09-14T18:26:56.089Z,19.51
2022-09-14T18:29:23.454Z,19.38
2022-09-14T18:31:53.536Z,19.18
2022-09-14T18:34:21.272Z,19.15
2022-09-14T18:36:47.639Z,19.05
2022-09-14T18:39:14.183Z,19.02
2022-09-14T18:41:40.670Z,18.96
2022-09-14T18:44:07.261Z,18.95
2022-09-14T18:46:33.717Z,18.89
2022-09-14T18:49:01.165Z,18.80
2022-09-14T18:51:28.839Z,18.77
2022-09-14T18:53:59.890Z,18.72
2022-09-14T18:56:27.856Z,18.68
2022-09-14T18:58:54.227Z,18.51
2022-09-14T19:01:20.745Z,18.55
2022-09-14T19:03:48.087Z,18.58
2022-09-14T19:06:16.701Z,18.47
2022-09-14T19:08:43.616Z,18.49
2022-09-14T19:11:21.346Z,18.27
2022-09-14T19:13:48.530Z,18.31
2022-09-14T19:16:17.117Z,18.31
2022-09-14T19:18:44.564Z,18.25
2022-09-14T19:21:13.950Z,18.14
2022-09-14T19:23:40.787Z,18.05
2022-09-14T19:26:09.671Z,17.93
2022-09-14T19:28:36.441Z,17.94
2022-09-14T19:31:13.906Z,17.73
2022-09-14T19:33:45.115Z,17.72
2022-09-14T19:36:16.868Z,17.61
2022-09-14T19:38:44.426Z,17.57
2022-09-14T19:41:11.195Z,17.46
2022-09-14T19:43:38.081Z,17.49
2022-09-14T19:46:05.699Z,17.39
2022-09-14T19:48:32.897Z,17.41
2022-09-14T19:51:00.531Z,17.33
2022-09-14T19:53:28.483Z,17.33
2022-09-14T19:55:55.180Z,17.21
2022-09-14T19:58:22.016Z,17.27
2022-09-14T20:00:55.172Z,17.13
2022-09-14T20:03:22.004Z,17.10
2022-09-14T20:05:48.866Z,16.91
2022-09-14T20:08:15.213Z,16.99
2022-09-14T20:10:41.556Z,16.95
2022-09-14T20:13:08.361Z,16.93
2022-09-14T20:15:34.869Z,16.82
2022-09-14T20:18:01.273Z,16.69
2022-09-14T20:20:27.636Z,16.79
2022-09-14T20:22:54.014Z,16.75
2022-09-14T20:25:20.388Z,16.83
2022-09-14T20:27:46.944Z,16.76
2022-09-14T20:30:13.348Z,16.81
2022-09-14T20:32:39.713Z,16.63
2022-09-14T20:35:06.161Z,16.73
2022-09-14T20:37:32.623Z,16.73
2022-09-14T20:39:58.993Z,16.87
2022-09-14T20:42:25.357Z,16.88
2022-09-14T20:44:51.713Z,16.96
2022-09-14T20:47:18.070Z,16.96
2022-09-14T20:49:44.815Z,16.98
2022-09-14T20:52:11.167Z,16.97
2022-09-14T20:54:37.520Z,17.06
2022-09-14T20:57:04.713Z,17.05
2022-09-14T20:59:31.253Z,16.95
2022-09-14T21:01:58.854Z,16.94
2022-09-14T21:04:27.678Z,16.88
2022-09-14T21:06:55.356Z,16.83
2022-09-14T21:09:24.409Z,16.75
2022-09-14T21:11:51.503Z,16.76
2022-09-14T21:14:18.996Z,16.71
2022-09-14T21:16:47.917Z,16.67
2022-09-14T21:19:17.224Z,16.67
2022-09-14T21:21:43.868Z,16.65
2022-09-14T21:24:13.254Z,16.70
2022-09-14T21:26:42.877Z,16.70
2022-09-14T21:29:13.052Z,16.64
2022-09-14T21:31:39.648Z,16.57
2022-09-14T21:34:07.362Z,16.43
2022-09-14T21:36:36.544Z,16.33
2022-09-14T21:39:07.144Z,16.27
2022-09-14T21:41:34.003Z,16.04
2022-09-14T21:44:00.484Z,16.16
2022-09-14T21:46:27.253Z,16.03
2022-09-14T21:48:55.009Z,16.06
2022-09-14T21:51:23.804Z,16.28
2022-09-14T21:53:52.525Z,16.22
2022-09-14T21:56:20.659Z,16.06
2022-09-14T21:58:55.212Z,16.17
2022-09-14T22:01:22.122Z,16.32
2022-09-14T22:03:51.285Z,16.28
2022-09-14T22:06:18.959Z,16.25
2022-09-14T22:08:45.368Z,16.41
2022-09-14T22:11:23.156Z,16.36
2022-09-14T22:13:54.282Z,16.44
2022-09-14T22:16:21.184Z,16.48
2022-09-14T22:18:49.962Z,16.54
2022-09-14T22:21:17.345Z,16.50
2022-09-14T22:23:47.911Z,16.50
2022-09-14T22:26:14.262Z,16.57
2022-09-14T22:28:40.706Z,16.54
2022-09-14T22:31:08.182Z,16.47
2022-09-14T22:33:35.151Z,16.53
2022-09-14T22:36:02.781Z,16.49
2022-09-14T22:38:31.036Z,16.50
2022-09-14T22:41:02.248Z,16.43
2022-09-14T22:43:29.164Z,16.42
2022-09-14T22:45:55.718Z,16.49
2022-09-14T22:48:22.450Z,16.53
2022-09-14T22:50:52.212Z,16.43
2022-09-14T22:53:19.917Z,16.54
2022-09-14T22:55:46.289Z,16.51
2022-09-14T22:58:14.417Z,16.45
2022-09-14T23:00:41.440Z,16.53
2022-09-14T23:03:09.061Z,16.42
2022-09-14T23:05:35.945Z,16.53
2022-09-14T23:08:02.713Z,16.53
2022-09-14T23:10:29.073Z,16.53
2022-09-14T23:12:55.434Z,16.56
2022-09-14T23:15:21.805Z,16.59
2022-09-14T23:17:51.998Z,16.68
2022-09-14T23:20:18.623Z,16.69
2022-09-14T23:22:44.967Z,16.57
2022-09-14T23:25:11.389Z,16.54
2022-09-14T23:27:37.741Z,16.61
2022-09-14T23:30:04.959Z,16.31
2022-09-14T23:32:32.029Z,16.39
2022-09-14T23:34:58.396Z,16.27
2022-09-14T23:37:24.792Z,16.35
2022-09-14T23:39:51.183Z,16.05
2022-09-14T23:42:17.593Z,16.22
2022-09-14T23:44:43.943Z,16.15
2022-09-14T23:47:10.325Z,16.26
2022-09-14T23:49:36.787Z,16.08
2022-09-14T23:52:03.440Z,16.18
2022-09-14T23:54:29.833Z,16.12
2022-09-14T23:56:56.176Z,16.08
2022-09-14T23:59:22.570Z,16.02
